Flight Track Log - Related Links

Times and Time Zones

All times are in EST time to prevent confusion due to time zone crossing. See the N984BT flight status page for this flight to view local times or setup timezone preferences in your user account.

Time Position Orientation Groundspeed Altitude Reporting Facility
EST Latitude Longitude Course Direction KTS MPH feet Rate Location/Type
Mon 10:29:12 AM 41.5244 -80.2200 169° South 85 98 4,400  Level Cleveland Center
Mon 10:30:14 AM 41.4956 -80.2147 172° South 88 101 4,500  Climbing Cleveland Center
Mon 10:31:16 AM 41.4711 -80.2192 188° South 87 100 4,400 -145 Descending Cleveland Center
Mon 10:32:00 AM 41.4348 -80.2504 188° South  Level FlightAware Approximate
Mon 10:32:18 AM 41.4436 -80.2167 176° South 98 113 4,200  Level Cleveland Center
Mon 10:33:00 AM 41.4028 -80.2564 188° South  Level FlightAware Approximate
Mon 10:33:20 AM 41.4189 -80.2167 180° South 92 106 4,200  Level Cleveland Center
Mon 10:34:23 AM 41.3942 -80.2164 180° South 90 104 4,100 -48 Descending Cleveland Center
Mon 10:35:25 AM 41.3706 -80.2181 183° South 87 100 4,100 48 Level Cleveland Center
Mon 10:36:27 AM 41.3431 -80.2178 180° South 84 97 4,200 97 Climbing Cleveland Center
Mon 10:37:29 AM 41.3203 -80.2144 174° South 82 94 4,300 145 Climbing Cleveland Center
Mon 10:38:31 AM 41.2997 -80.2142 179° South 75 86 4,500 145 Climbing Cleveland Center
Mon 10:39:33 AM 41.2786 -80.2161 184° South 74 85 4,600  Climbing Cleveland Center
Mon 10:40:35 AM 41.2608 -80.2281 207° Southwest 72 83 4,500 -48 Descending Cleveland Center
Mon 10:41:37 AM 41.2403 -80.2467 214° Southwest 73 84 4,500 -145 Level Cleveland Center
Mon 10:42:39 AM 41.2189 -80.2517 190° South 86 99 4,200 -194 Descending Cleveland Center
Mon 10:43:41 AM 41.1950 -80.2522 181° South 89 102 4,100 -145 Descending Cleveland Center
Mon 10:44:43 AM 41.1703 -80.2517 179° South 88 101 3,900 -242 Descending Cleveland Center
Mon 10:45:45 AM 41.1458 -80.2514 180° South 88 101 3,600 -290 Descending Cleveland Center
Mon 10:46:47 AM 41.1194 -80.2550 186° South 96 110 3,300 -290 Descending Cleveland Center
Mon 10:47:49 AM 41.0939 -80.2622 192° South 84 97 3,000 -194 Descending Cleveland Center
Mon 10:48:51 AM 41.0733 -80.2708 198° South 81 93 2,900  Descending Cleveland Center
Mon 10:49:53 AM 41.0533 -80.2783 196° South 76 87 3,000 97 Climbing Cleveland Center
Mon 10:50:55 AM 41.0300 -80.2778 179° South 80 92 3,100 48 Climbing Cleveland Center
Mon 10:51:57 AM 41.0103 -80.2881 201° Southwest 80 92 3,100 48 Level Cleveland Center
Mon 10:52:59 AM 40.9922 -80.3000 207° Southwest 74 85 3,200  Climbing Cleveland Center
Mon 10:54:01 AM 40.9669 -80.3058 190° South 76 87 3,100 -97 Descending Cleveland Center
Mon 10:55:03 AM 40.9492 -80.3175 206° Southwest 74 85 3,000 -98 Descending Cleveland Center
Mon 10:56:04 AM 40.9314 -80.3297 207° Southwest 72 83 2,900  Descending Cleveland Center
Mon 10:57:06 AM 40.9083 -80.3356 191° South 80 92 3,000 145 Climbing Cleveland Center
Mon 10:58:08 AM 40.8881 -80.3394 188° South 76 87 3,200 48 Climbing Cleveland Center
Mon 10:59:10 AM 40.8669 -80.3469 195° South 79 91 3,100 -145 Descending Cleveland Center
Mon 11:00:12 AM 40.8428 -80.3472 180° South 85 98 2,900 -341 Descending Cleveland Center
Mon 11:01:13 AM 40.8183 -80.3625 205° Southwest 83 96 2,400 -341 Descending Cleveland Center
Mon 11:02:15 AM 40.7961 -80.3753 204° Southwest 84 97 2,200 -290 Descending Cleveland Center
Mon 11:03:17 AM 40.7839 -80.3983 235° Southwest 93 107 1,800 -387 Descending Cleveland Center
Mon 11:04:19 AM 40.7700 -80.4086 209° Southwest 73 84 1,400 -387 Descending Cleveland Center
Mon 11:06:00 AM 40.7725 -80.3914 180° South  Level Estimated

Login

Don't have an account? Register now (free) for customized features, flight alerts, and more!